地図

経路データ

SID SEASON NUMBER BASIN SUBBASIN NAME ISO_TIME NATURE LAT LON WMO_WIND WMO_PRES WMO_AGENCY TRACK_TYPE DIST2LAND LANDFALL IFLAG USA_AGENCY USA_ATCF_ID USA_LAT USA_LON USA_RECORD USA_STATUS USA_WIND USA_PRES USA_SSHS USA_R34_NE USA_R34_SE USA_R34_SW USA_R34_NW USA_R50_NE USA_R50_SE USA_R50_SW USA_R50_NW USA_R64_NE USA_R64_SE USA_R64_SW USA_R64_NW USA_POCI USA_ROCI USA_RMW USA_EYE TOKYO_LAT TOKYO_LON TOKYO_GRADE TOKYO_WIND TOKYO_PRES TOKYO_R50_DIR TOKYO_R50_LONG TOKYO_R50_SHORT TOKYO_R30_DIR TOKYO_R30_LONG TOKYO_R30_SHORT TOKYO_LAND CMA_LAT CMA_LON CMA_CAT CMA_WIND CMA_PRES HKO_LAT HKO_LON HKO_CAT HKO_WIND HKO_PRES NEWDELHI_LAT NEWDELHI_LON NEWDELHI_GRADE NEWDELHI_WIND NEWDELHI_PRES NEWDELHI_CI NEWDELHI_DP NEWDELHI_POCI REUNION_LAT REUNION_LON REUNION_TYPE REUNION_WIND REUNION_PRES REUNION_TNUM REUNION_CI REUNION_RMW REUNION_R34_NE REUNION_R34_SE REUNION_R34_SW REUNION_R34_NW REUNION_R50_NE REUNION_R50_SE REUNION_R50_SW REUNION_R50_NW REUNION_R64_NE REUNION_R64_SE REUNION_R64_SW REUNION_R64_NW BOM_LAT BOM_LON BOM_TYPE BOM_WIND BOM_PRES BOM_TNUM BOM_CI BOM_RMW BOM_R34_NE BOM_R34_SE BOM_R34_SW BOM_R34_NW BOM_R50_NE BOM_R50_SE BOM_R50_SW BOM_R50_NW BOM_R64_NE BOM_R64_SE BOM_R64_SW BOM_R64_NW BOM_ROCI BOM_POCI BOM_EYE BOM_POS_METHOD BOM_PRES_METHOD NADI_LAT NADI_LON NADI_CAT NADI_WIND NADI_PRES WELLINGTON_LAT WELLINGTON_LON WELLINGTON_WIND WELLINGTON_PRES DS824_LAT DS824_LON DS824_STAGE DS824_WIND DS824_PRES TD9636_LAT TD9636_LON TD9636_STAGE TD9636_WIND TD9636_PRES TD9635_LAT TD9635_LON TD9635_WIND TD9635_PRES TD9635_ROCI NEUMANN_LAT NEUMANN_LON NEUMANN_CLASS NEUMANN_WIND NEUMANN_PRES MLC_LAT MLC_LON MLC_CLASS MLC_WIND MLC_PRES USA_GUST BOM_GUST BOM_GUST_PER REUNION_GUST REUNION_GUST_PER USA_SEAHGT USA_SEARAD_NE USA_SEARAD_SE USA_SEARAD_SW USA_SEARAD_NW STORM_SPEED STORM_DIR
1896146N13070 1896 11 NI AS NOT_NAMED 1896-05-25 00:00:00 TS 13.5000 69.5000 main 507 503 _________O____ -1 13.5000 69.5000 TC 30 3 20
1896146N13070 1896 11 NI AS NOT_NAMED 1896-05-25 03:00:00 TS 13.6233 69.5400 main 503 484 _________PO___ -1 13.6850 69.5600 TC 30 13.5000 69.5000 1 3 11
1896146N13070 1896 11 NI AS NOT_NAMED 1896-05-25 06:00:00 TS 13.8369 69.5743 main 484 471 _________OP___ -1 13.9000 69.6000 TC 30 13.7422 69.5359 1 5 6
1896146N13070 1896 11 NI AS NOT_NAMED 1896-05-25 09:00:00 TS 14.0804 69.5903 main 471 464 _________PP___ -1 14.1575 69.6075 TC 30 13.9775 69.5674 1 5 2
1896146N13070 1896 11 NI AS NOT_NAMED 1896-05-25 12:00:00 TS 14.2995 69.5951 main 464 455 _________OP___ -1 14.4000 69.6000 TC 30 14.1991 69.5903 1 4 0
1896146N13070 1896 11 NI AS NOT_NAMED 1896-05-25 15:00:00 TS 14.4825 69.6037 main 455 449 _________PO___ -1 14.5650 69.6075 TC 30 14.4000 69.6000 1 3 0
1896146N13070 1896 11 NI AS NOT_NAMED 1896-05-25 18:00:00 TS 14.6378 69.5967 main 449 439 _________OP___ -1 14.7000 69.6000 TC 30 14.5756 69.5935 1 3 354
1896146N13070 1896 11 NI AS NOT_NAMED 1896-05-25 21:00:00 TS 14.7900 69.5650 main 439 439 _________PP___ -1 14.8500 69.5575 TC 30 14.7300 69.5725 1 3 346
1896146N13070 1896 11 NI AS NOT_NAMED 1896-05-26 00:00:00 TS 14.9347 69.5202 main 444 435 _________OP___ -1 15.0000 69.5000 TC 30 14.8694 69.5403 1 3 343
1896146N13070 1896 11 NI AS NOT_NAMED 1896-05-26 03:00:00 TS 15.0788 69.4750 main 435 431 _________PO___ -1 15.1575 69.4500 TC 30 15.0000 69.5000 1 3 343
1896146N13070 1896 11 NI AS NOT_NAMED 1896-05-26 06:00:00 TS 15.2222 69.4327 main 441 438 _________OP___ -1 15.3000 69.4000 TC 30 15.1444 69.4653 1 3 344
1896146N13070 1896 11 NI AS NOT_NAMED 1896-05-26 09:00:00 TS 15.3475 69.3900 main 438 434 _________PP___ -1 15.4150 69.3575 TC 30 15.2800 69.4225 1 2 337
1896146N13070 1896 11 NI AS NOT_NAMED 1896-05-26 12:00:00 TS 15.4503 69.3342 main 442 442 _________OP___ -1 15.5000 69.3000 TC 30 15.4006 69.3684 1 2 324
1896146N13070 1896 11 NI AS NOT_NAMED 1896-05-26 15:00:00 TS 15.5288 69.2538 main 442 442 _________PO___ -1 15.5575 69.2075 TC 30 15.5000 69.3000 1 2 309
1896146N13070 1896 11 NI AS NOT_NAMED 1896-05-26 18:00:00 TS 15.5837 69.1612 main 449 449 _________OP___ -1 15.6000 69.1000 TC 30 15.5675 69.2224 1 2 300
1896146N13070 1896 11 NI AS NOT_NAMED 1896-05-26 21:00:00 TS 15.6287 69.0687 main 460 460 _________PP___ -1 15.6425 69.0075 TC 30 15.6150 69.1299 1 2 296
1896146N13070 1896 11 NI AS NOT_NAMED 1896-05-27 00:00:00 TS 15.6775 68.9612 main 468 468 _________OP___ -1 15.7000 68.9000 TC 30 15.6550 69.0224 1 3 298
1896146N13070 1896 11 NI AS NOT_NAMED 1896-05-27 03:00:00 TS 15.7500 68.8288 main 487 487 _________PO___ -1 15.8000 68.7575 TC 31 15.7000 68.9000 1 3 300
1896146N13070 1896 11 NI AS NOT_NAMED 1896-05-27 06:00:00 TS 15.8360 68.6802 main 497 497 _________OP___ -1 15.9000 68.6000 TC 32 15.7719 68.7604 1 3 298
1896146N13070 1896 11 NI AS NOT_NAMED 1896-05-27 09:00:00 TS 15.9038 68.5250 main 517 517 _________PP___ -1 15.9575 68.4425 TC 33 15.8500 68.6076 1 3 294
1896146N13070 1896 11 NI AS NOT_NAMED 1896-05-27 12:00:00 TS 15.9641 68.3755 main 526 526 _________OP___ -1 16.0000 68.3000 TC 34 15.9282 68.4510 1 3 295
1896146N13070 1896 11 NI AS NOT_NAMED 1896-05-27 15:00:00 TS 16.0250 68.2500 main 536 546 _________PO___ -1 16.0500 68.2000 TC 36 16.0000 68.3000 2 2 297
1896146N13070 1896 11 NI AS NOT_NAMED 1896-05-27 18:00:00 TS 16.0724 68.1500 main 546 546 _________OP___ -1 16.1000 68.1000 TC 39 16.0448 68.2001 2 2 293
1896146N13070 1896 11 NI AS NOT_NAMED 1896-05-27 21:00:00 TS 16.1098 68.0410 main 567 567 _________PP___ -1 16.1349 67.9799 TC 42 16.0846 68.1021 2 3 290
1896146N13070 1896 11 NI AS NOT_NAMED 1896-05-28 00:00:00 TS 16.1661 67.8891 main 575 575 _________OP___ -1 16.2000 67.8000 TC 45 16.1322 67.9781 2 4 294
1896146N13070 1896 11 NI AS NOT_NAMED 1896-05-28 03:00:00 TS 16.2713 67.6650 main 590 590 _________PO___ -1 16.3425 67.5301 TC 45 16.2000 67.8000 3 6 295
1896146N13070 1896 11 NI AS NOT_NAMED 1896-05-28 06:00:00 TS 16.4039 67.3603 main 599 599 _________OP___ -1 16.5000 67.2000 TC 45 16.3078 67.5206 3 7 292
1896146N13070 1896 11 NI AS NOT_NAMED 1896-05-28 09:00:00 TS 16.5215 67.0151 main 614 611 _________PP___ -1 16.6075 66.8425 TC 45 16.4354 67.1878 3 7 289
1896146N13070 1896 11 NI AS NOT_NAMED 1896-05-28 12:00:00 TS 16.6351 66.6681 main 623 620 _________OP___ -1 16.7000 66.5000 TC 45 16.5703 66.8362 3 7 290
1896146N13070 1896 11 NI AS NOT_NAMED 1896-05-28 15:00:00 TS 16.7500 66.3675 main 634 625 _________PO___ -1 16.7999 66.2350 TC 45 16.7000 66.5000 3 6 293
1896146N13070 1896 11 NI AS NOT_NAMED 1896-05-28 18:00:00 TS 16.8493 66.1282 main 645 637 _________OP___ -1 16.9000 66.0000 TC 45 16.7985 66.2565 3 5 293
1896146N13070 1896 11 NI AS NOT_NAMED 1896-05-28 21:00:00 TS 16.9420 65.9009 main 651 643 _________PP___ -1 16.9924 65.7724 TC 45 16.8917 66.0294 3 5 293
1896146N13070 1896 11 NI AS NOT_NAMED 1896-05-29 00:00:00 TS 17.0445 65.6438 main 666 658 _________OP___ -1 17.1000 65.5000 TC 45 16.9891 65.7877 3 6 292
1896146N13070 1896 11 NI AS NOT_NAMED 1896-05-29 03:00:00 TS 17.1712 65.3150 main 673 673 _________PO___ -1 17.2425 65.1300 TC 45 17.1000 65.5000 3 8 292
1896146N13070 1896 11 NI AS NOT_NAMED 1896-05-29 06:00:00 TS 17.3220 64.9107 main 696 695 _________OP___ -1 17.4000 64.7000 TC 45 17.2440 65.1215 3 9 291
1896146N13070 1896 11 NI AS NOT_NAMED 1896-05-29 09:00:00 TS 17.4789 64.4727 main 698 650 _________PP___ -1 17.5575 64.2500 TC 45 17.4003 64.6953 3 9 290
1896146N13070 1896 11 NI AS NOT_NAMED 1896-05-29 12:00:00 TS 17.6282 64.0232 main 650 611 _________OP___ -1 17.7000 63.8000 TC 45 17.5564 64.2465 3 9 288
1896146N13070 1896 11 NI AS NOT_NAMED 1896-05-29 15:00:00 TS 17.7537 63.5962 main 604 565 _________PO___ -1 17.8074 63.3924 TC 45 17.7000 63.8000 3 8 286
1896146N13070 1896 11 NI AS NOT_NAMED 1896-05-29 18:00:00 TS 17.8570 63.1963 main 565 525 _________OP___ -1 17.9000 63.0000 TC 45 17.8141 63.3925 3 8 285
1896146N13070 1896 11 NI AS NOT_NAMED 1896-05-29 21:00:00 TS 17.9572 62.7960 main 525 489 _________PP___ -1 17.9999 62.6000 TC 45 17.9146 62.9921 3 8 285
1896146N13070 1896 11 NI AS NOT_NAMED 1896-05-30 00:00:00 TS 18.0539 62.3978 main 483 448 _________OP___ -1 18.1000 62.2000 TC 45 18.0078 62.5957 3 8 284
1896146N13070 1896 11 NI AS NOT_NAMED 1896-05-30 03:00:00 TS 18.1500 62.0000 main 448 407 _________PO___ -1 18.1999 61.8000 TC 45 18.1000 62.2000 3 8 284
1896146N13070 1896 11 NI AS NOT_NAMED 1896-05-30 06:00:00 TS 18.2499 61.5999 main 407 366 _________OP___ -1 18.3000 61.4000 TC 45 18.1998 61.7999 3 8 285
1896146N13070 1896 11 NI AS NOT_NAMED 1896-05-30 09:00:00 TS 18.3498 61.1999 main 366 323 _________PP___ -1 18.3999 61.0000 TC 45 18.2997 61.3998 3 8 285
1896146N13070 1896 11 NI AS NOT_NAMED 1896-05-30 12:00:00 TS 18.4499 60.7999 main 323 279 _________OP___ -1 18.5000 60.6000 TC 45 18.3997 60.9999 3 8 285
1896146N13070 1896 11 NI AS NOT_NAMED 1896-05-30 15:00:00 TS 18.5500 60.4000 main 279 235 _________PO___ -1 18.5999 60.2000 TC 45 18.5000 60.6000 3 8 285
1896146N13070 1896 11 NI AS NOT_NAMED 1896-05-30 18:00:00 TS 18.6431 60.0287 main 235 202 _________OP___ -1 18.7000 59.8000 TC 45 18.6004 60.2002 3 7 285
1896146N13070 1896 11 NI AS NOT_NAMED 1896-05-30 21:00:00 TS 18.7405 59.6403 main 192 159 _________PP___ -1 18.8002 59.4001 TC 45 18.7007 59.8004 3 7 285
1896146N13070 1896 11 NI AS NOT_NAMED 1896-05-31 00:00:00 TS 18.8338 59.2669 main 159 126 _________OP___ -1 18.9000 59.0000 TC 45 18.8006 59.4004 3 6 285
1896146N13070 1896 11 NI AS NOT_NAMED 1896-05-31 03:00:00 NR 18.9000 59.0000 main 126 __________O___ -1 TC 18.9000 59.0000 3 5 285

IBTrACS Databaseについて

本データベースは、米国NOAAが公開する1842年以降の世界の熱帯低気圧のベストトラックデータアーカイブInternational Best Track Archive for Climate Stewardship (IBTrACS)を、ウェブで閲覧しやすい形式に変換したものです。

最終更新日:2021-11-26